Time;durP1;ratioP1;P1;durP2;ratioP2;P2;SDS_P1;SDS_P2;PMS_P1;PMS_P2;Temp;Humidity;BMP_temperature;BMP_pressure;BME280_temperature;BME280_humidity;BME280_pressure;Samples;Min_cycle;Max_cycle;Signal;HPM_P1;HPM_P2
2024/02/17 00:00:08;;;;;;;6.20;5.18;;;;;;;1.64;68.59;94170.09;521015;28;817;-70
2024/02/17 00:00:24;;;;;;;7.82;6.20;;;;;;;1.60;68.58;94152.44;521096;28;1056;-70
2024/02/17 00:00:39;;;;;;;6.95;6.05;;;;;;;1.51;68.66;94158.75;519153;28;798;-70
2024/02/17 00:00:55;;;;;;;6.03;5.43;;;;;;;1.49;68.95;94163.94;519698;28;754;-71
2024/02/17 00:01:10;;;;;;;6.00;5.40;;;;;;;1.49;68.89;94161.22;519738;28;1769;-70
2024/02/17 00:01:29;;;;;;;6.00;5.40;;;;;;;1.49;68.82;94161.22;520936;28;766;-71
2024/02/17 00:01:44;;;;;;;6.50;5.90;;;;;;;1.50;68.57;94157.25;519140;28;908;-71
2024/02/17 00:02:01;;;;;;;7.45;6.22;;;;;;;1.52;69.20;94165.69;519308;28;881;-72
2024/02/17 00:02:16;;;;;;;7.68;6.25;;;;;;;1.53;69.01;94167.19;519224;28;1031;-71
2024/02/17 00:02:32;;;;;;;6.17;5.53;;;;;;;1.39;68.69;94144.25;519186;28;806;-71
2024/02/17 00:02:48;;;;;;;6.85;5.63;;;;;;;1.51;68.83;94159.53;519131;28;822;-71
2024/02/17 00:03:04;;;;;;;7.17;5.93;;;;;;;1.49;68.70;94161.22;520882;28;2019;-71
2024/02/17 00:03:22;;;;;;;7.57;5.88;;;;;;;1.46;68.78;94160.19;519214;28;798;-71
2024/02/17 00:03:38;;;;;;;7.97;6.18;;;;;;;1.49;68.87;94158.50;520080;28;1001;-71
2024/02/17 00:03:53;;;;;;;6.97;6.27;;;;;;;1.50;68.60;94159.97;521179;28;766;-71
2024/02/17 00:04:09;;;;;;;7.20;6.27;;;;;;;1.51;68.81;94153.31;521181;28;849;-71
2024/02/17 00:04:24;;;;;;;7.20;6.45;;;;;;;1.53;68.83;94156.31;521160;28;766;-71
2024/02/17 00:04:40;;;;;;;8.03;6.63;;;;;;;1.39;69.19;94157.84;520476;28;1687;-71
2024/02/17 00:04:55;;;;;;;8.57;6.78;;;;;;;1.36;69.29;94161.53;520185;28;932;-71
2024/02/17 00:05:11;;;;;;;8.47;7.13;;;;;;;1.38;69.28;94169.19;520392;28;859;-71
2024/02/17 00:05:26;;;;;;;9.00;7.35;;;;;;;1.32;69.51;94160.94;521284;28;761;-71
2024/02/17 00:05:42;;;;;;;9.03;7.17;;;;;;;1.28;69.82;94160.38;520164;28;769;-71
2024/02/17 00:05:57;;;;;;;9.10;7.28;;;;;;;1.28;69.47;94160.38;520006;28;901;-71
2024/02/17 00:06:13;;;;;;;10.23;7.60;;;;;;;1.28;70.05;94157.66;521248;28;885;-71
2024/02/17 00:06:28;;;;;;;10.82;8.10;;;;;;;1.29;69.99;94166.59;521325;28;809;-71
2024/02/17 00:06:43;;;;;;;9.23;7.73;;;;;;;1.27;69.91;94156.19;520724;28;1588;-71
2024/02/17 00:06:59;;;;;;;8.60;7.70;;;;;;;1.29;69.68;94169.31;519976;28;1143;-71
2024/02/17 00:07:14;;;;;;;9.57;8.03;;;;;;;1.26;69.83;94159.34;520386;28;1493;-71
2024/02/17 00:07:30;;;;;;;10.10;8.18;;;;;;;1.23;69.86;94158.34;520569;28;805;-71
2024/02/17 00:07:45;;;;;;;10.60;8.57;;;;;;;1.24;70.03;94165.28;520866;28;987;-71
2024/02/17 00:08:01;;;;;;;12.73;9.70;;;;;;;1.25;69.83;94158.63;518561;28;814;-71
2024/02/17 00:08:17;;;;;;;13.73;11.13;;;;;;;1.28;70.22;94163.09;518313;28;853;-71
2024/02/17 00:08:32;;;;;;;13.48;11.13;;;;;;;1.31;70.16;94166.88;518349;28;1017;-71
2024/02/17 00:08:48;;;;;;;12.10;9.80;;;;;;;1.33;70.13;94162.44;519113;28;857;-71
2024/02/17 00:09:03;;;;;;;11.90;9.23;;;;;;;1.34;70.10;94163.94;519099;28;798;-72
2024/02/17 00:09:18;;;;;;;12.10;9.80;;;;;;;1.37;70.47;94165.72;519207;28;817;-71
2024/02/17 00:09:34;;;;;;;11.00;9.50;;;;;;;1.37;69.79;94164.97;517145;28;778;-71
2024/02/17 00:09:49;;;;;;;11.70;9.50;;;;;;;1.38;69.83;94164.53;517447;28;885;-71
2024/02/17 00:10:05;;;;;;;13.25;10.18;;;;;;;1.39;69.74;94166.00;521010;28;911;-71
2024/02/17 00:10:21;;;;;;;13.95;11.07;;;;;;;1.41;70.07;94160.84;521393;28;948;-71
2024/02/17 00:10:36;;;;;;;14.03;11.30;;;;;;;1.40;69.60;94156.63;521361;28;825;-71
2024/02/17 00:10:52;;;;;;;13.75;11.18;;;;;;;1.46;69.76;94162.16;521235;28;861;-71
2024/02/17 00:11:07;;;;;;;15.47;11.30;;;;;;;1.48;69.72;94163.19;520260;28;1627;-71
2024/02/17 00:11:23;;;;;;;14.70;10.90;;;;;;;1.44;69.64;94151.75;520624;28;842;-71
2024/02/17 00:11:38;;;;;;;13.70;10.43;;;;;;;1.53;69.41;94164.47;519808;28;898;-71
2024/02/17 00:11:54;;;;;;;13.60;9.95;;;;;;;1.53;69.22;94167.19;519784;28;896;-71
2024/02/17 00:12:09;;;;;;;13.23;9.83;;;;;;;1.51;69.43;94159.53;520179;28;773;-71
2024/02/17 00:12:25;;;;;;;12.88;9.95;;;;;;;1.36;69.64;94139.00;519273;28;904;-71
2024/02/17 00:12:40;;;;;;;13.93;9.77;;;;;;;1.49;69.66;94164.66;519238;28;876;-71
2024/02/17 00:12:56;;;;;;;15.48;10.38;;;;;;;1.49;69.51;94164.66;520013;28;838;-72
2024/02/17 00:13:11;;;;;;;14.43;11.20;;;;;;;1.49;69.22;94161.22;521273;28;1037;-71
2024/02/17 00:13:27;;;;;;;14.10;11.30;;;;;;;1.50;69.80;94165.41;519329;28;810;-72
2024/02/17 00:13:43;;;;;;;13.80;10.93;;;;;;;1.50;69.42;94159.97;519300;28;810;-71
2024/02/17 00:13:58;;;;;;;12.65;10.68;;;;;;;1.49;69.28;94163.94;520284;28;810;-72
2024/02/17 00:14:14;;;;;;;13.63;11.23;;;;;;;1.47;69.70;94164.38;521366;28;794;-71
2024/02/17 00:14:29;;;;;;;14.33;10.90;;;;;;;1.45;69.77;94166.81;521325;28;782;-72
2024/02/17 00:14:45;;;;;;;14.18;10.60;;;;;;;1.33;69.67;94140.69;521409;28;830;-71
2024/02/17 00:15:00;;;;;;;14.20;10.87;;;;;;;1.46;69.89;94162.91;521061;28;1132;-71
2024/02/17 00:15:17;;;;;;;13.80;10.50;;;;;;;1.48;69.58;94162.41;521297;28;813;-71
2024/02/17 00:15:32;;;;;;;14.40;10.85;;;;;;;1.46;69.63;94171.06;520944;28;1698;-71
2024/02/17 00:15:48;;;;;;;14.63;10.70;;;;;;;1.48;69.82;94167.84;519772;28;813;-71
2024/02/17 00:16:04;;;;;;;14.10;10.63;;;;;;;1.48;69.42;94168.63;521308;28;898;-71
2024/02/17 00:16:19;;;;;;;13.70;10.65;;;;;;;1.49;69.81;94163.94;520397;28;1376;-72
2024/02/17 00:16:35;;;;;;;11.70;9.38;;;;;;;1.50;69.63;94162.69;521215;28;1159;-71
2024/02/17 00:16:50;;;;;;;10.93;8.70;;;;;;;1.50;69.82;94166.16;519274;28;802;-72
2024/02/17 00:17:06;;;;;;;10.52;8.27;;;;;;;1.38;69.50;94145.47;521298;28;774;-71
2024/02/17 00:17:21;;;;;;;9.80;7.87;;;;;;;1.47;69.26;94158.94;521322;28;830;-72
2024/02/17 00:17:37;;;;;;;10.07;8.02;;;;;;;1.45;69.27;94168.81;521322;28;789;-72
2024/02/17 00:17:52;;;;;;;10.43;7.97;;;;;;;1.41;68.66;94160.84;519757;28;868;-72
2024/02/17 00:18:08;;;;;;;10.73;7.68;;;;;;;1.38;69.26;94163.75;521182;28;921;-72
2024/02/17 00:18:28;;;;;;;10.93;8.00;;;;;;;1.37;69.36;94165.72;521257;28;786;-73
2024/02/17 00:18:43;;;;;;;11.43;9.15;;;;;;;1.34;69.02;94165.94;521340;28;1716;-72
2024/02/17 00:18:59;;;;;;;10.40;9.10;;;;;;;1.31;69.29;94164.16;521117;28;883;-72
2024/02/17 00:19:14;;;;;;;11.13;9.40;;;;;;;1.27;69.18;94166.31;521172;28;766;-72
2024/02/17 00:19:30;;;;;;;11.33;9.10;;;;;;;1.19;69.56;94160.50;521147;28;774;-72
2024/02/17 00:19:49;;;;;;;9.65;7.97;;;;;;;1.17;69.26;94154.78;519558;28;1889;-72
2024/02/17 00:20:05;;;;;;;8.35;7.47;;;;;;;1.15;69.62;94162.66;520917;28;889;-72
2024/02/17 00:20:21;;;;;;;8.85;7.15;;;;;;;1.17;69.75;94165.66;519052;28;833;-72
2024/02/17 00:20:36;;;;;;;8.47;6.27;;;;;;;1.18;70.14;94158.25;519203;28;892;-72
2024/02/17 00:20:51;;;;;;;8.27;6.35;;;;;;;1.19;70.25;94163.22;521084;28;805;-72
2024/02/17 00:21:07;;;;;;;8.47;6.83;;;;;;;1.21;69.84;94158.03;521070;28;798;-72
2024/02/17 00:21:23;;;;;;;8.68;6.63;;;;;;;1.24;69.95;94159.09;521013;28;1043;-72
2024/02/17 00:21:38;;;;;;;7.65;5.97;;;;;;;1.26;69.88;94162.84;521164;28;852;-72
2024/02/17 00:21:54;;;;;;;5.83;5.10;;;;;;;1.28;69.53;94165.84;519563;28;848;-72
2024/02/17 00:22:09;;;;;;;6.32;5.72;;;;;;;1.31;69.42;94158.69;521187;28;758;-72
2024/02/17 00:22:25;;;;;;;7.50;6.70;;;;;;;1.34;69.42;94163.94;520967;28;1100;-72
2024/02/17 00:22:41;;;;;;;7.80;6.03;;;;;;;1.36;69.10;94158.03;521190;28;849;-72
2024/02/17 00:22:56;;;;;;;7.57;5.53;;;;;;;1.38;68.84;94164.53;520984;28;1922;-72
2024/02/17 00:23:12;;;;;;;6.25;5.53;;;;;;;1.40;68.94;94156.63;521232;28;848;-72
2024/02/17 00:23:27;;;;;;;6.00;5.40;;;;;;;1.41;68.96;94163.56;521171;28;848;-72
2024/02/17 00:23:43;;;;;;;6.07;5.40;;;;;;;1.42;69.01;94165.06;520600;28;1675;-72
2024/02/17 00:23:58;;;;;;;5.97;5.38;;;;;;;1.42;68.80;94159.63;519613;28;970;-72
2024/02/17 00:24:14;;;;;;;5.40;4.90;;;;;;;1.43;69.08;94161.09;519612;28;925;-72
2024/02/17 00:24:29;;;;;;;5.47;4.97;;;;;;;1.44;68.70;94157.19;521208;28;864;-72
2024/02/17 00:24:45;;;;;;;5.80;5.20;;;;;;;1.46;68.67;94167.59;520701;28;873;-72
2024/02/17 00:25:00;;;;;;;6.90;5.10;;;;;;;1.45;68.38;94155.94;520424;28;885;-72
2024/02/17 00:25:15;;;;;;;7.00;5.30;;;;;;;1.49;68.69;94166.66;521076;28;766;-72
2024/02/17 00:25:32;;;;;;;6.20;5.53;;;;;;;1.49;68.45;94161.94;520985;28;1072;-72
2024/02/17 00:25:48;;;;;;;6.28;5.45;;;;;;;1.51;68.46;94158.75;520993;28;849;-72
2024/02/17 00:26:03;;;;;;;6.10;5.45;;;;;;;1.53;68.76;94165.22;520900;28;858;-72
2024/02/17 00:26:19;;;;;;;6.80;5.80;;;;;;;1.54;68.29;94158.56;520924;28;1710;-72
2024/02/17 00:26:34;;;;;;;7.75;5.88;;;;;;;1.54;68.44;94157.81;520300;28;1109;-72
2024/02/17 00:26:50;;;;;;;6.93;5.63;;;;;;;1.57;68.29;94161.56;519053;28;774;-72
2024/02/17 00:27:06;;;;;;;7.53;5.55;;;;;;;1.57;68.32;94161.56;520598;28;974;-72
2024/02/17 00:27:21;;;;;;;8.07;5.60;;;;;;;1.36;68.14;94125.41;521162;28;825;-72
2024/02/17 00:27:37;;;;;;;7.37;6.13;;;;;;;1.57;67.89;94159.59;519123;28;774;-72
2024/02/17 00:27:52;;;;;;;7.63;6.33;;;;;;;1.58;67.67;94163.06;519303;28;877;-72
2024/02/17 00:28:07;;;;;;;9.15;6.55;;;;;;;1.57;68.01;94156.88;521128;28;821;-72
2024/02/17 00:28:26;;;;;;;9.57;7.10;;;;;;;1.59;67.94;94156.38;521187;28;908;-72
2024/02/17 00:28:41;;;;;;;9.02;7.70;;;;;;;1.59;67.77;94161.81;519102;28;1170;-72
2024/02/17 00:29:00;;;;;;;10.33;8.83;;;;;;;1.58;67.86;94152.94;521075;28;773;-73
2024/02/17 00:29:15;;;;;;;12.63;9.20;;;;;;;1.59;68.24;94161.81;521101;28;846;-72
2024/02/17 00:29:31;;;;;;;13.57;9.47;;;;;;;1.59;67.81;94159.09;521207;28;797;-72
2024/02/17 00:29:47;;;;;;;11.77;9.23;;;;;;;1.59;67.43;94159.88;521109;28;797;-72
2024/02/17 00:30:05;;;;;;;11.15;8.95;;;;;;;1.59;68.17;94161.81;521077;28;849;-71
2024/02/17 00:30:20;;;;;;;10.02;8.63;;;;;;;1.58;67.99;94160.34;521042;28;1076;-72
2024/02/17 00:30:36;;;;;;;9.63;8.53;;;;;;;1.58;67.66;94158.38;521132;28;774;-71
2024/02/17 00:30:51;;;;;;;11.05;9.02;;;;;;;1.58;67.89;94157.63;521096;28;745;-72
2024/02/17 00:31:07;;;;;;;11.83;9.80;;;;;;;1.59;67.70;94170.00;520353;28;1643;-72
2024/02/17 00:31:22;;;;;;;11.27;9.70;;;;;;;1.58;67.90;94154.91;520326;28;825;-72
2024/02/17 00:31:37;;;;;;;12.03;9.60;;;;;;;1.59;67.70;94161.81;519950;28;769;-72
2024/02/17 00:31:53;;;;;;;12.07;9.43;;;;;;;1.58;67.70;94160.34;519516;28;857;-72
2024/02/17 00:32:08;;;;;;;11.83;9.20;;;;;;;1.58;67.92;94165.78;519773;28;1052;-72
2024/02/17 00:32:24;;;;;;;10.47;8.87;;;;;;;1.28;67.70;94116.88;519150;28;802;-73
2024/02/17 00:32:39;;;;;;;10.20;9.10;;;;;;;1.54;67.80;94157.81;519086;28;805;-72
2024/02/17 00:32:55;;;;;;;11.27;9.50;;;;;;;1.56;67.49;94158.06;519691;28;908;-72
2024/02/17 00:33:10;;;;;;;11.35;9.60;;;;;;;1.57;68.20;94150.66;520443;28;813;-72
2024/02/17 00:33:26;;;;;;;12.13;10.17;;;;;;;1.57;67.74;94158.81;518988;28;923;-72
2024/02/17 00:33:41;;;;;;;12.23;10.10;;;;;;;1.57;67.85;94156.09;519545;28;1460;-73
2024/02/17 00:33:57;;;;;;;10.93;9.37;;;;;;;1.57;68.05;94164.28;519877;28;1153;-72
2024/02/17 00:34:13;;;;;;;12.02;9.18;;;;;;;1.57;67.89;94165.03;519137;28;817;-71
2024/02/17 00:34:29;;;;;;;12.98;9.98;;;;;;;1.58;68.71;94161.09;519253;28;841;-71
2024/02/17 00:34:44;;;;;;;11.60;10.05;;;;;;;1.58;68.38;94166.53;519694;28;813;-71
2024/02/17 00:35:00;;;;;;;12.53;9.93;;;;;;;1.58;68.77;94161.09;521158;28;1121;-71
2024/02/17 00:35:15;;;;;;;12.35;9.68;;;;;;;1.58;68.18;94165.78;521243;28;966;-73
2024/02/17 00:35:30;;;;;;;11.77;9.90;;;;;;;1.58;68.79;94163.81;521299;28;855;-72
2024/02/17 00:35:46;;;;;;;13.07;10.48;;;;;;;1.58;68.21;94160.34;521260;28;773;-71
2024/02/17 00:36:01;;;;;;;12.83;9.77;;;;;;;1.58;68.38;94160.34;520757;28;1183;-71
2024/02/17 00:36:17;;;;;;;11.77;9.53;;;;;;;1.58;68.35;94166.53;521249;28;935;-71
2024/02/17 00:36:32;;;;;;;12.05;9.75;;;;;;;1.59;68.64;94170.00;521313;28;758;-71
2024/02/17 00:36:48;;;;;;;11.43;9.30;;;;;;;1.59;69.04;94164.53;521190;28;1119;-71
2024/02/17 00:37:03;;;;;;;12.77;10.03;;;;;;;1.59;68.16;94170.00;521262;28;769;-71
2024/02/17 00:37:19;;;;;;;13.98;10.57;;;;;;;1.42;68.70;94143.31;520351;28;1754;-71
2024/02/17 00:37:34;;;;;;;14.10;10.27;;;;;;;1.58;68.73;94163.06;520523;28;837;-71
2024/02/17 00:37:50;;;;;;;13.83;10.20;;;;;;;1.57;68.98;94165.03;519983;28;820;-71
2024/02/17 00:38:05;;;;;;;12.18;10.02;;;;;;;1.58;68.38;94163.81;520921;28;874;-71
2024/02/17 00:38:22;;;;;;;12.17;10.17;;;;;;;1.57;68.88;94167.75;520153;28;824;-71
2024/02/17 00:38:37;;;;;;;12.30;10.25;;;;;;;1.56;69.30;94163.50;521139;28;1100;-71
2024/02/17 00:38:53;;;;;;;11.82;10.15;;;;;;;1.56;68.94;94163.50;521263;28;908;-71
2024/02/17 00:39:09;;;;;;;11.50;10.30;;;;;;;1.56;68.99;94163.50;519309;28;762;-71
2024/02/17 00:39:25;;;;;;;12.13;10.00;;;;;;;1.56;69.42;94166.25;520516;28;865;-73
2024/02/17 00:39:40;;;;;;;12.33;9.60;;;;;;;1.54;68.96;94164.00;521380;28;927;-71
2024/02/17 00:39:57;;;;;;;12.00;9.50;;;;;;;1.52;68.64;94168.41;521290;28;818;-72
2024/02/17 00:40:13;;;;;;;11.73;9.70;;;;;;;1.49;69.35;94161.94;518853;28;1344;-71
2024/02/17 00:40:29;;;;;;;12.48;9.90;;;;;;;1.45;68.63;94160.66;519353;28;830;-72
2024/02/17 00:40:45;;;;;;;13.07;9.80;;;;;;;1.41;68.75;94160.06;519526;28;865;-71
2024/02/17 00:41:04;;;;;;;12.95;9.60;;;;;;;1.34;69.07;94165.94;518994;28;1647;-73
2024/02/17 00:41:19;;;;;;;11.77;9.68;;;;;;;1.24;69.07;94165.28;519151;28;873;-72
2024/02/17 00:41:35;;;;;;;11.93;9.30;;;;;;;1.19;68.91;94162.47;518801;28;836;-73
2024/02/17 00:41:50;;;;;;;12.95;9.40;;;;;;;1.16;69.14;94164.16;518829;28;1216;-72
2024/02/17 00:42:07;;;;;;;14.27;9.88;;;;;;;1.16;69.63;94161.44;519999;28;938;-73
2024/02/17 00:42:22;;;;;;;13.95;10.48;;;;;;;1.18;69.85;94161.72;519595;28;1535;-72
2024/02/17 00:42:38;;;;;;;12.75;10.15;;;;;;;1.20;69.86;94170.16;521540;28;857;-73
2024/02/17 00:42:53;;;;;;;12.70;10.17;;;;;;;1.24;69.78;94172.69;520177;28;1981;-72
2024/02/17 00:43:10;;;;;;;13.97;10.60;;;;;;;1.24;69.70;94165.28;519428;28;889;-73
2024/02/17 00:43:26;;;;;;;13.90;10.55;;;;;;;1.28;69.54;94162.34;519313;28;1013;-72
2024/02/17 00:43:42;;;;;;;13.60;10.95;;;;;;;1.29;69.55;94164.63;519573;28;907;-73
2024/02/17 00:43:57;;;;;;;13.68;11.30;;;;;;;1.30;69.24;94160.66;519915;28;921;-71
2024/02/17 00:44:12;;;;;;;12.77;10.70;;;;;;;1.32;69.25;94166.38;521503;28;1096;-72
2024/02/17 00:44:28;;;;;;;11.18;9.70;;;;;;;1.33;69.49;94159.72;521645;28;912;-72
2024/02/17 00:44:43;;;;;;;11.17;9.60;;;;;;;1.31;68.87;94158.69;521684;28;750;-71
2024/02/17 00:44:59;;;;;;;11.48;9.68;;;;;;;1.31;69.53;94161.41;520175;28;1722;-71
2024/02/17 00:45:14;;;;;;;12.07;10.00;;;;;;;1.24;69.14;94151.69;520985;28;758;-71
2024/02/17 00:45:30;;;;;;;12.95;10.43;;;;;;;1.32;69.42;94158.22;520067;28;888;-71
2024/02/17 00:45:48;;;;;;;13.90;10.98;;;;;;;1.33;69.63;94164.41;519563;28;913;-71
2024/02/17 00:46:04;;;;;;;13.35;10.95;;;;;;;1.18;69.53;94139.97;520030;28;833;-74
2024/02/17 00:46:19;;;;;;;12.48;10.75;;;;;;;1.30;69.75;94163.38;520079;28;832;-73
2024/02/17 00:46:35;;;;;;;13.45;11.07;;;;;;;1.32;70.00;94165.66;520870;28;998;-73
2024/02/17 00:46:52;;;;;;;15.07;11.43;;;;;;;1.31;69.92;94161.41;522199;28;1099;-72
2024/02/17 00:47:07;;;;;;;13.48;10.95;;;;;;;1.33;69.69;94161.69;520498;28;1137;-73
2024/02/17 00:47:22;;;;;;;13.50;11.00;;;;;;;1.35;69.88;94161.97;519953;28;1110;-73
2024/02/17 00:47:38;;;;;;;13.85;11.40;;;;;;;1.35;70.04;94160.00;519702;28;1367;-72
2024/02/17 00:47:54;;;;;;;13.33;11.60;;;;;;;1.35;70.21;94159.25;520725;28;1265;-73
2024/02/17 00:48:09;;;;;;;13.50;11.45;;;;;;;1.39;69.75;94167.97;520426;28;1456;-72
2024/02/17 00:48:26;;;;;;;12.48;11.07;;;;;;;1.40;70.22;94159.34;519977;28;1500;-74
2024/02/17 00:48:41;;;;;;;12.70;11.00;;;;;;;1.41;69.84;94162.81;521265;28;854;-72
2024/02/17 00:48:56;;;;;;;13.30;11.43;;;;;;;1.41;69.96;94166.28;521127;28;956;-73
2024/02/17 00:49:12;;;;;;;13.87;12.40;;;;;;;1.44;69.77;94162.63;519592;28;870;-73
2024/02/17 00:49:27;;;;;;;14.10;12.60;;;;;;;1.44;69.85;94161.88;520974;28;895;-71
2024/02/17 00:49:43;;;;;;;13.88;12.27;;;;;;;1.46;70.12;94162.16;521515;28;773;-71
2024/02/17 00:49:58;;;;;;;14.07;12.10;;;;;;;1.45;70.16;94160.66;521377;28;813;-71
2024/02/17 00:50:13;;;;;;;14.57;12.00;;;;;;;1.43;69.87;94161.09;521466;28;1027;-71
2024/02/17 00:50:29;;;;;;;14.07;11.80;;;;;;;1.40;69.59;94162.06;520964;28;853;-71
2024/02/17 00:50:45;;;;;;;14.17;12.13;;;;;;;1.39;70.42;94159.81;521449;28;858;-71
2024/02/17 00:51:00;;;;;;;14.27;12.55;;;;;;;1.38;70.15;94156.34;520847;28;1480;-71
2024/02/17 00:51:15;;;;;;;14.63;12.38;;;;;;;1.36;70.49;94158.81;519751;28;857;-71
2024/02/17 00:51:31;;;;;;;15.23;12.67;;;;;;;1.29;70.54;94161.91;521276;28;877;-72
2024/02/17 00:51:46;;;;;;;13.52;11.98;;;;;;;1.26;70.52;94162.06;519431;28;809;-72
2024/02/17 00:52:02;;;;;;;12.97;11.37;;;;;;;1.24;70.69;94161.81;521001;28;916;-72
2024/02/17 00:52:17;;;;;;;13.20;11.50;;;;;;;1.20;70.86;94161.25;521276;28;877;-71
2024/02/17 00:52:33;;;;;;;15.07;11.80;;;;;;;1.19;70.36;94157.78;521106;28;1111;-71
2024/02/17 00:52:49;;;;;;;15.30;11.83;;;;;;;1.18;71.02;94159.00;521440;28;821;-71
2024/02/17 00:53:04;;;;;;;12.70;11.30;;;;;;;1.18;70.79;94163.69;521516;28;825;-71
2024/02/17 00:53:23;;;;;;;13.43;11.53;;;;;;;1.19;71.01;94160.50;519529;28;864;-71
2024/02/17 00:53:42;;;;;;;12.25;10.93;;;;;;;1.21;70.33;94160.78;519268;28;1699;-71
2024/02/17 00:53:57;;;;;;;12.23;11.00;;;;;;;1.23;70.44;94152.16;520345;28;866;-71
2024/02/17 00:54:13;;;;;;;13.73;12.23;;;;;;;1.24;70.45;94153.63;519528;28;1028;-71
2024/02/17 00:54:28;;;;;;;13.77;12.10;;;;;;;1.25;70.37;94155.16;519446;28;794;-71
2024/02/17 00:54:44;;;;;;;13.85;11.32;;;;;;;1.27;70.29;94164.34;519406;28;814;-71
2024/02/17 00:54:59;;;;;;;13.63;10.93;;;;;;;1.28;70.00;94152.22;520591;28;817;-71
2024/02/17 00:55:14;;;;;;;13.07;11.13;;;;;;;1.31;70.04;94155.97;521457;28;798;-71
2024/02/17 00:55:30;;;;;;;13.50;11.47;;;;;;;1.32;70.28;94155.50;521454;28;885;-71
2024/02/17 00:55:45;;;;;;;14.02;11.35;;;;;;;1.34;70.26;94163.22;521313;28;873;-71
2024/02/17 00:56:01;;;;;;;13.47;11.40;;;;;;;1.33;70.01;94157.00;521088;28;854;-71
2024/02/17 00:56:16;;;;;;;12.23;10.93;;;;;;;1.32;70.36;94158.22;521437;28;786;-71
2024/02/17 00:56:32;;;;;;;12.00;10.67;;;;;;;1.30;69.82;94157.22;521426;28;844;-71
2024/02/17 00:56:47;;;;;;;12.30;11.00;;;;;;;1.26;70.36;94162.84;521413;28;813;-71
2024/02/17 00:57:03;;;;;;;13.87;11.73;;;;;;;1.21;70.20;94160.03;521305;28;830;-71
2024/02/17 00:57:18;;;;;;;13.73;11.73;;;;;;;1.17;70.04;94154.78;521500;28;936;-71
2024/02/17 00:57:34;;;;;;;12.47;11.17;;;;;;;1.15;70.47;94156.50;521216;28;993;-71
2024/02/17 00:57:49;;;;;;;13.37;11.43;;;;;;;1.14;70.14;94157.69;521439;28;880;-71
2024/02/17 00:58:04;;;;;;;14.95;11.70;;;;;;;1.13;70.12;94159.66;521466;28;913;-71
2024/02/17 00:58:20;;;;;;;14.07;11.30;;;;;;;1.13;70.80;94158.91;520420;28;1689;-71
2024/02/17 00:58:35;;;;;;;13.13;11.10;;;;;;;1.16;70.49;94152.53;520680;28;908;-71
2024/02/17 00:58:51;;;;;;;13.37;11.50;;;;;;;1.17;70.71;94154.03;520268;28;813;-71
2024/02/17 00:59:06;;;;;;;12.65;11.32;;;;;;;1.16;70.58;94156.00;521390;28;958;-71
2024/02/17 00:59:22;;;;;;;12.93;11.10;;;;;;;1.16;70.60;94161.44;520296;28;809;-71
2024/02/17 00:59:38;;;;;;;13.27;11.30;;;;;;;1.14;71.23;94157.69;519467;28;1067;-71
2024/02/17 00:59:53;;;;;;;13.77;11.18;;;;;;;1.14;70.54;94158.44;519657;28;771;-71
2024/02/17 01:00:09;;;;;;;13.23;10.87;;;;;;;1.15;70.90;94154.50;521475;28;837;-71
2024/02/17 01:00:25;;;;;;;12.23;10.77;;;;;;;1.16;71.06;94161.44;520317;28;1650;-71
2024/02/17 01:00:40;;;;;;;12.65;10.52;;;;;;;1.18;70.59;94158.25;519478;28;990;-71
2024/02/17 01:00:56;;;;;;;11.27;9.70;;;;;;;1.17;71.02;94157.50;521386;28;790;-71
2024/02/17 01:01:11;;;;;;;10.93;9.52;;;;;;;1.21;70.96;94158.03;520129;28;1864;-71
2024/02/17 01:01:28;;;;;;;10.90;9.70;;;;;;;1.22;71.15;94159.56;520969;28;877;-71
2024/02/17 01:01:43;;;;;;;10.30;9.30;;;;;;;1.06;70.73;94134.84;519715;28;912;-71
2024/02/17 01:02:01;;;;;;;9.20;8.23;;;;;;;1.23;70.62;94163.78;520633;28;891;-71
2024/02/17 01:02:16;;;;;;;8.73;7.82;;;;;;;1.21;70.58;94157.31;519605;28;914;-71
2024/02/17 01:02:32;;;;;;;8.77;7.87;;;;;;;1.25;70.37;94158.63;521265;28;1203;-71
2024/02/17 01:02:48;;;;;;;9.93;7.53;;;;;;;1.25;71.00;94155.91;521506;28;853;-71
2024/02/17 01:03:04;;;;;;;9.70;7.47;;;;;;;1.21;70.52;94158.03;521315;28;1910;-71
2024/02/17 01:03:20;;;;;;;9.68;8.40;;;;;;;1.19;70.17;94165.19;519612;28;884;-71
2024/02/17 01:03:35;;;;;;;9.63;8.63;;;;;;;1.18;69.93;94161.72;519342;28;775;-71
2024/02/17 01:03:51;;;;;;;9.83;8.37;;;;;;;1.20;70.40;94155.81;519943;28;1710;-71
2024/02/17 01:04:07;;;;;;;9.70;8.50;;;;;;;1.21;70.16;94158.03;519640;28;969;-71
2024/02/17 01:04:22;;;;;;;9.23;8.35;;;;;;;1.23;69.67;94157.59;519336;28;782;-71
2024/02/17 01:04:38;;;;;;;9.80;8.47;;;;;;;1.24;69.92;94159.09;519570;28;927;-71
2024/02/17 01:04:53;;;;;;;11.25;9.00;;;;;;;1.26;69.99;94162.06;520876;28;828;-71
2024/02/17 01:05:08;;;;;;;11.00;9.57;;;;;;;1.27;69.67;94158.16;521645;28;852;-71
2024/02/17 01:05:24;;;;;;;11.07;9.90;;;;;;;1.29;69.84;94166.59;521526;28;872;-71
2024/02/17 01:05:41;;;;;;;12.03;10.10;;;;;;;1.30;69.48;94160.66;521248;28;1020;-71
2024/02/17 01:05:57;;;;;;;10.63;9.30;;;;;;;1.32;69.45;94160.22;521087;28;845;-71
2024/02/17 01:06:12;;;;;;;10.10;9.00;;;;;;;1.31;68.87;94161.41;521636;28;762;-71
2024/02/17 01:06:28;;;;;;;10.18;9.07;;;;;;;1.28;68.98;94157.66;521580;28;868;-71
2024/02/17 01:06:43;;;;;;;10.70;9.17;;;;;;;1.26;68.79;94162.06;521619;28;801;-71
2024/02/17 01:06:59;;;;;;;11.23;9.57;;;;;;;1.22;69.09;94159.56;521502;28;781;-71
2024/02/17 01:07:14;;;;;;;10.48;9.40;;;;;;;1.20;69.54;94158.53;521586;28;997;-71
2024/02/17 01:07:30;;;;;;;10.77;9.18;;;;;;;1.19;69.15;94160.50;521541;28;923;-71
2024/02/17 01:07:45;;;;;;;12.10;9.23;;;;;;;1.18;69.41;94159.00;521642;28;872;-71
2024/02/17 01:08:01;;;;;;;11.25;8.90;;;;;;;1.18;69.31;94160.97;521538;28;919;-71
2024/02/17 01:08:17;;;;;;;10.67;8.57;;;;;;;1.16;69.37;94152.53;518771;28;1755;-71
2024/02/17 01:08:32;;;;;;;9.57;8.25;;;;;;;1.14;69.42;94158.44;518190;28;983;-71
2024/02/17 01:08:48;;;;;;;8.83;7.93;;;;;;;1.14;69.48;94158.44;519043;28;978;-71
2024/02/17 01:09:03;;;;;;;8.57;7.67;;;;;;;1.16;69.35;94157.97;519344;28;782;-71
2024/02/17 01:09:19;;;;;;;9.03;7.90;;;;;;;1.16;69.60;94156.00;518843;28;1035;-70
2024/02/17 01:09:34;;;;;;;10.05;8.50;;;;;;;1.18;69.56;94156.28;517297;28;1162;-71
2024/02/17 01:09:49;;;;;;;8.90;8.00;;;;;;;1.20;69.43;94153.84;517331;28;888;-71
2024/02/17 01:10:05;;;;;;;8.00;7.00;;;;;;;1.21;69.12;94155.31;519410;28;798;-71
2024/02/17 01:10:21;;;;;;;8.38;6.88;;;;;;;1.21;69.21;94155.31;521278;28;938;-71
2024/02/17 01:10:36;;;;;;;8.70;7.03;;;;;;;1.23;69.37;94152.16;521496;28;1320;-70
2024/02/17 01:10:52;;;;;;;7.68;6.18;;;;;;;1.23;68.68;94157.59;521437;28;872;-71
2024/02/17 01:11:07;;;;;;;6.67;5.90;;;;;;;1.19;68.94;94148.88;520039;28;1596;-71
2024/02/17 01:11:23;;;;;;;6.70;6.05;;;;;;;1.22;68.63;94154.13;520594;28;868;-71
2024/02/17 01:11:38;;;;;;;6.87;6.17;;;;;;;1.21;69.14;94146.44;520603;28;1057;-70
2024/02/17 01:11:54;;;;;;;6.47;5.72;;;;;;;1.17;68.75;94154.78;520018;28;900;-71
2024/02/17 01:12:10;;;;;;;6.40;5.40;;;;;;;1.17;69.10;94149.34;520488;28;1155;-71
2024/02/17 01:12:25;;;;;;;6.57;5.70;;;;;;;1.14;68.82;94149.53;519570;28;758;-71
2024/02/17 01:12:41;;;;;;;6.95;6.25;;;;;;;1.11;69.23;94150.47;519525;28;777;-71
2024/02/17 01:12:56;;;;;;;8.63;6.67;;;;;;;1.09;68.92;94150.94;520373;28;877;-71
2024/02/17 01:13:12;;;;;;;9.05;6.45;;;;;;;1.09;69.15;94150.94;521515;28;1135;-71
2024/02/17 01:13:28;;;;;;;10.95;6.60;;;;;;;1.09;68.95;94150.94;520549;27;1493;-71
2024/02/17 01:13:43;;;;;;;10.47;6.73;;;;;;;1.10;68.98;94151.72;519930;28;1476;-71
2024/02/17 01:13:59;;;;;;;8.40;6.70;;;;;;;1.10;69.39;94148.97;520500;28;907;-71
2024/02/17 01:14:14;;;;;;;9.00;6.97;;;;;;;1.10;68.96;94146.25;520615;28;865;-71
2024/02/17 01:14:30;;;;;;;8.30;6.90;;;;;;;1.12;69.28;94154.69;519583;28;836;-71
2024/02/17 01:14:45;;;;;;;8.07;6.83;;;;;;;1.11;69.28;94148.50;519556;28;1163;-71
2024/02/17 01:15:01;;;;;;;8.25;6.88;;;;;;;1.10;68.89;94155.19;519854;28;908;-71
2024/02/17 01:15:17;;;;;;;7.10;6.18;;;;;;;1.07;68.85;94153.38;520302;28;1108;-71
2024/02/17 01:15:33;;;;;;;7.60;6.28;;;;;;;1.06;69.06;94160.03;521626;28;821;-71
2024/02/17 01:15:48;;;;;;;7.73;6.67;;;;;;;1.06;69.43;94151.88;521319;28;985;-71
2024/02/17 01:16:04;;;;;;;6.85;6.15;;;;;;;1.04;69.18;94151.59;519955;28;766;-71
2024/02/17 01:16:19;;;;;;;6.30;5.70;;;;;;;1.06;69.15;94154.59;519507;28;829;-71